sensor_id;sensor_type;location;lat;lon;timestamp;temperature;humidity
76577;DHT22;65441;44.748;37.600;2023-09-12T00:01:48;16.47;66.25
76577;DHT22;65441;44.748;37.600;2023-09-12T00:04:17;16.48;65.36
76577;DHT22;65441;44.748;37.600;2023-09-12T00:06:47;16.47;65.14
76577;DHT22;65441;44.748;37.600;2023-09-12T00:09:15;16.47;64.82
76577;DHT22;65441;44.748;37.600;2023-09-12T00:11:43;16.45;65.17
76577;DHT22;65441;44.748;37.600;2023-09-12T00:14:14;16.44;64.29
76577;DHT22;65441;44.748;37.600;2023-09-12T00:16:43;16.41;64.25
76577;DHT22;65441;44.748;37.600;2023-09-12T00:19:11;16.40;63.72
76577;DHT22;65441;44.748;37.600;2023-09-12T00:21:39;16.39;63.22
76577;DHT22;65441;44.748;37.600;2023-09-12T00:24:09;16.31;63.73
76577;DHT22;65441;44.748;37.600;2023-09-12T00:26:37;16.20;64.96
76577;DHT22;65441;44.748;37.600;2023-09-12T00:29:05;16.06;64.79
76577;DHT22;65441;44.748;37.600;2023-09-12T00:31:33;16.00;65.62
76577;DHT22;65441;44.748;37.600;2023-09-12T00:34:01;15.96;63.26
76577;DHT22;65441;44.748;37.600;2023-09-12T00:36:29;16.03;62.50
76577;DHT22;65441;44.748;37.600;2023-09-12T00:38:59;16.11;62.12
76577;DHT22;65441;44.748;37.600;2023-09-12T00:41:29;16.14;61.82
76577;DHT22;65441;44.748;37.600;2023-09-12T00:43:57;16.15;62.08
76577;DHT22;65441;44.748;37.600;2023-09-12T00:46:26;16.17;62.23
76577;DHT22;65441;44.748;37.600;2023-09-12T00:48:57;16.17;62.20
76577;DHT22;65441;44.748;37.600;2023-09-12T00:51:27;16.14;62.36
76577;DHT22;65441;44.748;37.600;2023-09-12T00:53:56;16.05;64.59
76577;DHT22;65441;44.748;37.600;2023-09-12T00:56:24;15.97;64.19
76577;DHT22;65441;44.748;37.600;2023-09-12T00:58:55;15.88;66.48
76577;DHT22;65441;44.748;37.600;2023-09-12T01:01:24;15.76;67.01
76577;DHT22;65441;44.748;37.600;2023-09-12T01:03:54;15.70;66.90
76577;DHT22;65441;44.748;37.600;2023-09-12T01:06:24;15.63;66.72
76577;DHT22;65441;44.748;37.600;2023-09-12T01:08:54;15.57;66.21
76577;DHT22;65441;44.748;37.600;2023-09-12T01:11:24;15.39;68.13
76577;DHT22;65441;44.748;37.600;2023-09-12T01:13:54;15.22;68.26
76577;DHT22;65441;44.748;37.600;2023-09-12T01:16:22;15.19;67.72
76577;DHT22;65441;44.748;37.600;2023-09-12T01:18:50;15.08;69.40
76577;DHT22;65441;44.748;37.600;2023-09-12T01:21:41;15.03;69.19
76577;DHT22;65441;44.748;37.600;2023-09-12T01:27:22;14.84;69.80
76577;DHT22;65441;44.748;37.600;2023-09-12T01:29:56;14.74;69.92
76577;DHT22;65441;44.748;37.600;2023-09-12T01:32:27;14.65;67.94
76577;DHT22;65441;44.748;37.600;2023-09-12T01:34:56;14.57;71.42
76577;DHT22;65441;44.748;37.600;2023-09-12T01:37:24;14.55;70.64
76577;DHT22;65441;44.748;37.600;2023-09-12T01:39:52;14.49;70.72
76577;DHT22;65441;44.748;37.600;2023-09-12T01:42:22;14.38;72.12
76577;DHT22;65441;44.748;37.600;2023-09-12T01:44:55;14.38;71.92
76577;DHT22;65441;44.748;37.600;2023-09-12T01:47:24;14.24;69.33
76577;DHT22;65441;44.748;37.600;2023-09-12T01:49:56;14.13;71.43
76577;DHT22;65441;44.748;37.600;2023-09-12T01:52:26;14.06;72.54
76577;DHT22;65441;44.748;37.600;2023-09-12T01:54:55;14.00;72.93
76577;DHT22;65441;44.748;37.600;2023-09-12T01:57:25;13.81;71.01
76577;DHT22;65441;44.748;37.600;2023-09-12T01:59:53;13.73;73.08
76577;DHT22;65441;44.748;37.600;2023-09-12T02:02:21;13.80;72.74
76577;DHT22;65441;44.748;37.600;2023-09-12T02:05:02;13.71;72.99
76577;DHT22;65441;44.748;37.600;2023-09-12T02:07:34;13.64;72.64
76577;DHT22;65441;44.748;37.600;2023-09-12T02:10:04;13.58;73.06
76577;DHT22;65441;44.748;37.600;2023-09-12T02:12:33;13.51;73.48
76577;DHT22;65441;44.748;37.600;2023-09-12T02:15:01;13.53;72.83
76577;DHT22;65441;44.748;37.600;2023-09-12T02:17:29;13.48;73.96
76577;DHT22;65441;44.748;37.600;2023-09-12T02:19:57;13.37;74.14
76577;DHT22;65441;44.748;37.600;2023-09-12T02:22:25;13.36;73.58
76577;DHT22;65441;44.748;37.600;2023-09-12T02:24:53;13.23;72.80
76577;DHT22;65441;44.748;37.600;2023-09-12T02:27:21;13.25;73.15
76577;DHT22;65441;44.748;37.600;2023-09-12T02:29:51;13.18;73.58
76577;DHT22;65441;44.748;37.600;2023-09-12T02:32:19;13.25;72.82
76577;DHT22;65441;44.748;37.600;2023-09-12T02:34:48;13.26;73.07
76577;DHT22;65441;44.748;37.600;2023-09-12T02:37:16;13.26;72.66
76577;DHT22;65441;44.748;37.600;2023-09-12T02:39:44;13.09;74.27
76577;DHT22;65441;44.748;37.600;2023-09-12T02:42:13;12.99;73.54
76577;DHT22;65441;44.748;37.600;2023-09-12T02:44:41;12.99;73.49
76577;DHT22;65441;44.748;37.600;2023-09-12T02:47:11;12.99;73.88
76577;DHT22;65441;44.748;37.600;2023-09-12T02:49:40;12.94;73.59
76577;DHT22;65441;44.748;37.600;2023-09-12T02:52:08;12.90;72.89
76577;DHT22;65441;44.748;37.600;2023-09-12T02:54:37;12.80;73.77
76577;DHT22;65441;44.748;37.600;2023-09-12T02:57:05;12.77;71.73
76577;DHT22;65441;44.748;37.600;2023-09-12T02:59:34;12.71;74.57
76577;DHT22;65441;44.748;37.600;2023-09-12T03:02:03;12.64;74.15
76577;DHT22;65441;44.748;37.600;2023-09-12T03:04:34;12.67;74.73
76577;DHT22;65441;44.748;37.600;2023-09-12T03:07:04;12.62;74.85
76577;DHT22;65441;44.748;37.600;2023-09-12T03:09:32;12.63;74.15
76577;DHT22;65441;44.748;37.600;2023-09-12T03:12:01;12.69;74.73
76577;DHT22;65441;44.748;37.600;2023-09-12T03:14:30;12.64;75.14
76577;DHT22;65441;44.748;37.600;2023-09-12T03:16:58;12.67;74.49
76577;DHT22;65441;44.748;37.600;2023-09-12T03:19:26;12.67;74.67
76577;DHT22;65441;44.748;37.600;2023-09-12T03:21:56;12.60;75.38
76577;DHT22;65441;44.748;37.600;2023-09-12T03:24:25;12.66;73.31
76577;DHT22;65441;44.748;37.600;2023-09-12T03:26:55;12.78;74.89
76577;DHT22;65441;44.748;37.600;2023-09-12T03:29:23;12.91;73.89
76577;DHT22;65441;44.748;37.600;2023-09-12T03:31:52;12.96;71.38
76577;DHT22;65441;44.748;37.600;2023-09-12T03:34:20;13.04;72.50
76577;DHT22;65441;44.748;37.600;2023-09-12T03:36:49;13.04;74.41
76577;DHT22;65441;44.748;37.600;2023-09-12T03:39:19;13.12;74.64
76577;DHT22;65441;44.748;37.600;2023-09-12T03:41:47;13.32;72.67
76577;DHT22;65441;44.748;37.600;2023-09-12T03:44:15;13.35;73.16
76577;DHT22;65441;44.748;37.600;2023-09-12T03:46:43;13.52;72.97
76577;DHT22;65441;44.748;37.600;2023-09-12T03:49:12;14.34;70.03
76577;DHT22;65441;44.748;37.600;2023-09-12T03:51:40;15.33;66.94
76577;DHT22;65441;44.748;37.600;2023-09-12T03:54:09;16.06;63.47
76577;DHT22;65441;44.748;37.600;2023-09-12T03:56:39;16.80;59.78
76577;DHT22;65441;44.748;37.600;2023-09-12T03:59:07;17.39;59.96
76577;DHT22;65441;44.748;37.600;2023-09-12T04:01:35;18.04;58.04
76577;DHT22;65441;44.748;37.600;2023-09-12T04:04:04;18.67;56.76
76577;DHT22;65441;44.748;37.600;2023-09-12T04:06:33;19.20;53.91
76577;DHT22;65441;44.748;37.600;2023-09-12T04:09:01;19.35;54.71
76577;DHT22;65441;44.748;37.600;2023-09-12T04:11:29;19.79;53.05
76577;DHT22;65441;44.748;37.600;2023-09-12T04:13:59;20.25;51.72
76577;DHT22;65441;44.748;37.600;2023-09-12T04:16:27;20.66;50.79
76577;DHT22;65441;44.748;37.600;2023-09-12T04:18:56;21.04;49.40
76577;DHT22;65441;44.748;37.600;2023-09-12T04:21:24;21.54;48.05
76577;DHT22;65441;44.748;37.600;2023-09-12T04:23:52;21.58;46.54
76577;DHT22;65441;44.748;37.600;2023-09-12T04:26:20;21.88;46.47
76577;DHT22;65441;44.748;37.600;2023-09-12T04:28:49;22.04;45.45
76577;DHT22;65441;44.748;37.600;2023-09-12T04:31:19;22.42;44.83
76577;DHT22;65441;44.748;37.600;2023-09-12T04:33:47;22.75;42.99
76577;DHT22;65441;44.748;37.600;2023-09-12T04:36:18;22.94;42.68
76577;DHT22;65441;44.748;37.600;2023-09-12T04:38:46;23.03;40.83
76577;DHT22;65441;44.748;37.600;2023-09-12T04:41:14;23.22;41.56
76577;DHT22;65441;44.748;37.600;2023-09-12T04:43:43;23.72;40.74
76577;DHT22;65441;44.748;37.600;2023-09-12T04:46:12;23.58;38.61
76577;DHT22;65441;44.748;37.600;2023-09-12T04:48:42;23.69;39.83
76577;DHT22;65441;44.748;37.600;2023-09-12T04:51:10;23.94;39.05
76577;DHT22;65441;44.748;37.600;2023-09-12T04:53:38;23.32;38.49
76577;DHT22;65441;44.748;37.600;2023-09-12T04:56:07;23.03;40.63
76577;DHT22;65441;44.748;37.600;2023-09-12T04:58:36;23.03;41.38
76577;DHT22;65441;44.748;37.600;2023-09-12T05:01:05;22.82;40.23
76577;DHT22;65441;44.748;37.600;2023-09-12T05:03:33;22.43;40.67
76577;DHT22;65441;44.748;37.600;2023-09-12T05:06:03;22.17;41.65
76577;DHT22;65441;44.748;37.600;2023-09-12T05:08:31;22.11;42.00
76577;DHT22;65441;44.748;37.600;2023-09-12T05:11:00;22.50;41.09
76577;DHT22;65441;44.748;37.600;2023-09-12T05:13:29;22.91;41.14
76577;DHT22;65441;44.748;37.600;2023-09-12T05:15:57;22.64;40.75
76577;DHT22;65441;44.748;37.600;2023-09-12T05:18:26;22.55;40.29
76577;DHT22;65441;44.748;37.600;2023-09-12T05:20:54;22.73;39.78
76577;DHT22;65441;44.748;37.600;2023-09-12T05:23:24;22.53;41.15
76577;DHT22;65441;44.748;37.600;2023-09-12T05:25:53;22.90;40.12
76577;DHT22;65441;44.748;37.600;2023-09-12T05:28:21;23.02;40.07
76577;DHT22;65441;44.748;37.600;2023-09-12T05:30:51;22.92;39.97
76577;DHT22;65441;44.748;37.600;2023-09-12T05:33:20;23.47;38.59
76577;DHT22;65441;44.748;37.600;2023-09-12T05:35:49;23.86;37.72
76577;DHT22;65441;44.748;37.600;2023-09-12T05:38:17;23.96;38.63
76577;DHT22;65441;44.748;37.600;2023-09-12T05:40:47;24.08;37.50
76577;DHT22;65441;44.748;37.600;2023-09-12T05:43:17;24.19;37.72
76577;DHT22;65441;44.748;37.600;2023-09-12T05:45:45;23.90;36.85
76577;DHT22;65441;44.748;37.600;2023-09-12T05:48:13;24.15;37.66
76577;DHT22;65441;44.748;37.600;2023-09-12T05:50:42;24.32;37.95
76577;DHT22;65441;44.748;37.600;2023-09-12T05:53:11;24.25;37.13
76577;DHT22;65441;44.748;37.600;2023-09-12T05:55:39;24.33;37.33
76577;DHT22;65441;44.748;37.600;2023-09-12T05:58:09;24.42;35.53
76577;DHT22;65441;44.748;37.600;2023-09-12T06:00:37;24.10;37.45
76577;DHT22;65441;44.748;37.600;2023-09-12T06:03:05;24.56;36.72
76577;DHT22;65441;44.748;37.600;2023-09-12T06:05:34;24.46;36.68
76577;DHT22;65441;44.748;37.600;2023-09-12T06:08:02;24.74;35.52
76577;DHT22;65441;44.748;37.600;2023-09-12T06:10:31;24.91;35.08
76577;DHT22;65441;44.748;37.600;2023-09-12T06:13:00;24.90;34.51
76577;DHT22;65441;44.748;37.600;2023-09-12T06:15:30;25.09;35.34
76577;DHT22;65441;44.748;37.600;2023-09-12T06:17:59;25.27;34.09
76577;DHT22;65441;44.748;37.600;2023-09-12T06:20:27;25.43;35.18
76577;DHT22;65441;44.748;37.600;2023-09-12T06:22:55;25.61;34.12
76577;DHT22;65441;44.748;37.600;2023-09-12T06:25:24;25.61;33.61
76577;DHT22;65441;44.748;37.600;2023-09-12T06:27:52;25.84;32.75
76577;DHT22;65441;44.748;37.600;2023-09-12T06:30:20;25.80;32.76
76577;DHT22;65441;44.748;37.600;2023-09-12T06:32:50;25.04;34.92
76577;DHT22;65441;44.748;37.600;2023-09-12T06:35:18;25.57;34.23
76577;DHT22;65441;44.748;37.600;2023-09-12T06:37:46;25.94;32.70
76577;DHT22;65441;44.748;37.600;2023-09-12T06:40:14;25.81;32.84
76577;DHT22;65441;44.748;37.600;2023-09-12T06:42:43;25.50;34.03
76577;DHT22;65441;44.748;37.600;2023-09-12T06:45:11;26.26;32.48
76577;DHT22;65441;44.748;37.600;2023-09-12T06:47:39;26.25;32.76
76577;DHT22;65441;44.748;37.600;2023-09-12T06:50:09;26.71;31.64
76577;DHT22;65441;44.748;37.600;2023-09-12T06:52:38;26.64;30.66
76577;DHT22;65441;44.748;37.600;2023-09-12T06:55:07;25.69;33.28
76577;DHT22;65441;44.748;37.600;2023-09-12T06:57:35;25.50;32.96
76577;DHT22;65441;44.748;37.600;2023-09-12T07:00:04;25.75;34.41
76577;DHT22;65441;44.748;37.600;2023-09-12T07:02:34;25.71;33.35
76577;DHT22;65441;44.748;37.600;2023-09-12T07:05:02;26.65;31.48
76577;DHT22;65441;44.748;37.600;2023-09-12T07:07:33;26.78;32.13
76577;DHT22;65441;44.748;37.600;2023-09-12T07:10:01;27.14;30.56
76577;DHT22;65441;44.748;37.600;2023-09-12T07:12:30;27.34;29.94
76577;DHT22;65441;44.748;37.600;2023-09-12T07:14:59;27.79;29.74
76577;DHT22;65441;44.748;37.600;2023-09-12T07:17:28;27.81;29.12
76577;DHT22;65441;44.748;37.600;2023-09-12T07:19:56;26.80;30.84
76577;DHT22;65441;44.748;37.600;2023-09-12T07:22:24;26.53;31.09
76577;DHT22;65441;44.748;37.600;2023-09-12T07:24:55;27.20;31.51
76577;DHT22;65441;44.748;37.600;2023-09-12T07:27:23;27.80;29.68
76577;DHT22;65441;44.748;37.600;2023-09-12T07:29:51;28.18;29.44
76577;DHT22;65441;44.748;37.600;2023-09-12T07:32:19;28.72;28.92
76577;DHT22;65441;44.748;37.600;2023-09-12T07:34:48;28.55;29.17
76577;DHT22;65441;44.748;37.600;2023-09-12T07:37:16;28.83;29.03
76577;DHT22;65441;44.748;37.600;2023-09-12T07:39:44;28.97;27.82
76577;DHT22;65441;44.748;37.600;2023-09-12T07:42:14;28.84;27.72
76577;DHT22;65441;44.748;37.600;2023-09-12T07:44:42;28.71;28.84
76577;DHT22;65441;44.748;37.600;2023-09-12T07:47:11;28.90;28.97
76577;DHT22;65441;44.748;37.600;2023-09-12T07:49:39;28.99;27.68
76577;DHT22;65441;44.748;37.600;2023-09-12T07:52:07;29.09;27.19
76577;DHT22;65441;44.748;37.600;2023-09-12T07:54:36;29.01;28.45
76577;DHT22;65441;44.748;37.600;2023-09-12T07:57:04;28.88;28.11
76577;DHT22;65441;44.748;37.600;2023-09-12T07:59:35;29.11;27.40
76577;DHT22;65441;44.748;37.600;2023-09-12T08:02:03;29.03;26.36
76577;DHT22;65441;44.748;37.600;2023-09-12T08:04:33;28.21;28.10
76577;DHT22;65441;44.748;37.600;2023-09-12T08:07:01;28.59;27.86
76577;DHT22;65441;44.748;37.600;2023-09-12T08:09:49;28.30;27.81
76577;DHT22;65441;44.748;37.600;2023-09-12T08:12:18;28.15;29.27
76577;DHT22;65441;44.748;37.600;2023-09-12T08:14:48;28.12;28.17
76577;DHT22;65441;44.748;37.600;2023-09-12T08:17:16;27.96;28.03
76577;DHT22;65441;44.748;37.600;2023-09-12T08:19:44;28.17;27.82
76577;DHT22;65441;44.748;37.600;2023-09-12T08:22:13;28.60;27.83
76577;DHT22;65441;44.748;37.600;2023-09-12T08:24:41;28.73;28.10
76577;DHT22;65441;44.748;37.600;2023-09-12T08:27:10;28.85;26.50
76577;DHT22;65441;44.748;37.600;2023-09-12T08:29:38;28.91;26.65
76577;DHT22;65441;44.748;37.600;2023-09-12T08:32:09;28.57;27.29
76577;DHT22;65441;44.748;37.600;2023-09-12T08:34:37;28.98;28.36
76577;DHT22;65441;44.748;37.600;2023-09-12T08:37:06;28.92;26.78
76577;DHT22;65441;44.748;37.600;2023-09-12T08:39:41;29.26;26.08
76577;DHT22;65441;44.748;37.600;2023-09-12T08:42:13;29.52;25.46
76577;DHT22;65441;44.748;37.600;2023-09-12T08:44:42;29.70;25.68
76577;DHT22;65441;44.748;37.600;2023-09-12T08:47:13;29.61;25.67
76577;DHT22;65441;44.748;37.600;2023-09-12T08:49:42;29.53;26.57
76577;DHT22;65441;44.748;37.600;2023-09-12T08:52:10;29.85;25.26
76577;DHT22;65441;44.748;37.600;2023-09-12T08:54:39;30.13;25.11
76577;DHT22;65441;44.748;37.600;2023-09-12T08:57:08;29.80;25.04
76577;DHT22;65441;44.748;37.600;2023-09-12T08:59:37;29.98;25.10
76577;DHT22;65441;44.748;37.600;2023-09-12T09:02:08;29.94;25.01
76577;DHT22;65441;44.748;37.600;2023-09-12T09:04:39;30.01;25.39
76577;DHT22;65441;44.748;37.600;2023-09-12T09:07:12;29.98;25.48
76577;DHT22;65441;44.748;37.600;2023-09-12T09:09:41;30.21;26.62
76577;DHT22;65441;44.748;37.600;2023-09-12T09:12:10;29.73;25.17
76577;DHT22;65441;44.748;37.600;2023-09-12T09:14:39;29.34;27.37
76577;DHT22;65441;44.748;37.600;2023-09-12T09:17:08;29.64;25.20
76577;DHT22;65441;44.748;37.600;2023-09-12T09:19:44;29.72;27.03
76577;DHT22;65441;44.748;37.600;2023-09-12T09:22:14;29.75;25.49
76577;DHT22;65441;44.748;37.600;2023-09-12T09:24:43;29.64;27.25
76577;DHT22;65441;44.748;37.600;2023-09-12T09:27:11;29.92;24.39
76577;DHT22;65441;44.748;37.600;2023-09-12T09:29:46;30.25;25.50
76577;DHT22;65441;44.748;37.600;2023-09-12T09:32:19;30.47;25.11
76577;DHT22;65441;44.748;37.600;2023-09-12T09:34:50;30.65;25.39
76577;DHT22;65441;44.748;37.600;2023-09-12T09:37:20;30.34;24.38
76577;DHT22;65441;44.748;37.600;2023-09-12T09:39:50;30.36;23.28
76577;DHT22;65441;44.748;37.600;2023-09-12T09:42:21;29.48;24.57
76577;DHT22;65441;44.748;37.600;2023-09-12T09:44:51;29.41;24.75
76577;DHT22;65441;44.748;37.600;2023-09-12T09:47:20;29.30;23.65
76577;DHT22;65441;44.748;37.600;2023-09-12T09:49:51;28.93;26.80
76577;DHT22;65441;44.748;37.600;2023-09-12T09:52:25;28.97;26.00
76577;DHT22;65441;44.748;37.600;2023-09-12T09:54:54;29.11;27.11
76577;DHT22;65441;44.748;37.600;2023-09-12T09:57:25;28.88;28.35
76577;DHT22;65441;44.748;37.600;2023-09-12T09:59:56;28.67;28.49
76577;DHT22;65441;44.748;37.600;2023-09-12T10:02:26;28.68;27.77
76577;DHT22;65441;44.748;37.600;2023-09-12T10:04:56;28.28;29.13
76577;DHT22;65441;44.748;37.600;2023-09-12T10:07:27;28.15;29.61
76577;DHT22;65441;44.748;37.600;2023-09-12T10:09:57;27.91;29.45
76577;DHT22;65441;44.748;37.600;2023-09-12T10:12:25;28.15;30.48
76577;DHT22;65441;44.748;37.600;2023-09-12T10:14:58;28.58;29.96
76577;DHT22;65441;44.748;37.600;2023-09-12T10:17:37;28.38;30.09
76577;DHT22;65441;44.748;37.600;2023-09-12T10:20:15;27.80;29.72
76577;DHT22;65441;44.748;37.600;2023-09-12T10:22:51;27.25;30.87
76577;DHT22;65441;44.748;37.600;2023-09-12T10:26:23;27.00;32.38
76577;DHT22;65441;44.748;37.600;2023-09-12T10:28:52;27.57;31.06
76577;DHT22;65441;44.748;37.600;2023-09-12T10:31:22;28.21;31.59
76577;DHT22;65441;44.748;37.600;2023-09-12T10:33:52;28.47;28.61
76577;DHT22;65441;44.748;37.600;2023-09-12T10:36:25;28.00;28.91
76577;DHT22;65441;44.748;37.600;2023-09-12T10:38:55;28.32;28.29
76577;DHT22;65441;44.748;37.600;2023-09-12T10:41:25;28.39;28.39
76577;DHT22;65441;44.748;37.600;2023-09-12T10:43:55;28.03;28.92
76577;DHT22;65441;44.748;37.600;2023-09-12T10:46:25;28.44;27.96
76577;DHT22;65441;44.748;37.600;2023-09-12T10:48:53;29.11;28.61
76577;DHT22;65441;44.748;37.600;2023-09-12T10:51:23;29.12;29.61
76577;DHT22;65441;44.748;37.600;2023-09-12T10:53:52;28.32;28.61
76577;DHT22;65441;44.748;37.600;2023-09-12T10:56:21;28.08;29.33
76577;DHT22;65441;44.748;37.600;2023-09-12T10:59:12;27.69;30.01
76577;DHT22;65441;44.748;37.600;2023-09-12T11:01:43;27.36;30.66
76577;DHT22;65441;44.748;37.600;2023-09-12T11:04:33;27.19;31.04
76577;DHT22;65441;44.748;37.600;2023-09-12T11:07:31;27.09;31.38
76577;DHT22;65441;44.748;37.600;2023-09-12T11:10:19;27.07;29.83
76577;DHT22;65441;44.748;37.600;2023-09-12T11:12:49;27.19;31.25
76577;DHT22;65441;44.748;37.600;2023-09-12T11:15:18;27.27;30.38
76577;DHT22;65441;44.748;37.600;2023-09-12T11:17:47;27.28;31.29
76577;DHT22;65441;44.748;37.600;2023-09-12T11:20:17;27.19;31.12
76577;DHT22;65441;44.748;37.600;2023-09-12T11:22:50;27.43;31.28
76577;DHT22;65441;44.748;37.600;2023-09-12T11:25:20;28.15;29.76
76577;DHT22;65441;44.748;37.600;2023-09-12T11:28:03;28.67;26.22
76577;DHT22;65441;44.748;37.600;2023-09-12T11:30:32;28.99;26.47
76577;DHT22;65441;44.748;37.600;2023-09-12T11:33:04;29.28;27.25
76577;DHT22;65441;44.748;37.600;2023-09-12T11:35:37;29.43;26.07
76577;DHT22;65441;44.748;37.600;2023-09-12T11:38:10;28.97;25.85
76577;DHT22;65441;44.748;37.600;2023-09-12T11:40:43;29.04;27.52
76577;DHT22;65441;44.748;37.600;2023-09-12T11:43:20;28.82;27.16
76577;DHT22;65441;44.748;37.600;2023-09-12T11:45:50;27.91;28.37
76577;DHT22;65441;44.748;37.600;2023-09-12T11:48:20;27.60;29.00
76577;DHT22;65441;44.748;37.600;2023-09-12T11:50:52;27.57;29.19
76577;DHT22;65441;44.748;37.600;2023-09-12T11:53:23;27.12;31.09
76577;DHT22;65441;44.748;37.600;2023-09-12T11:55:54;26.98;32.29
76577;DHT22;65441;44.748;37.600;2023-09-12T11:58:25;26.79;31.84
76577;DHT22;65441;44.748;37.600;2023-09-12T12:00:55;26.65;32.48
76577;DHT22;65441;44.748;37.600;2023-09-12T12:03:26;26.58;33.17
76577;DHT22;65441;44.748;37.600;2023-09-12T12:05:55;26.55;31.93
76577;DHT22;65441;44.748;37.600;2023-09-12T12:08:25;26.60;31.66
76577;DHT22;65441;44.748;37.600;2023-09-12T12:10:54;26.41;32.33
76577;DHT22;65441;44.748;37.600;2023-09-12T12:13:23;26.53;33.05
76577;DHT22;65441;44.748;37.600;2023-09-12T12:15:53;26.66;33.56
76577;DHT22;65441;44.748;37.600;2023-09-12T12:18:21;27.23;33.00
76577;DHT22;65441;44.748;37.600;2023-09-12T12:20:49;27.43;33.48
76577;DHT22;65441;44.748;37.600;2023-09-12T12:23:18;27.38;34.21
76577;DHT22;65441;44.748;37.600;2023-09-12T12:26:07;27.38;36.49
76577;DHT22;65441;44.748;37.600;2023-09-12T12:28:38;27.31;35.66
76577;DHT22;65441;44.748;37.600;2023-09-12T12:31:08;27.30;36.08
76577;DHT22;65441;44.748;37.600;2023-09-12T12:33:36;26.89;36.53
76577;DHT22;65441;44.748;37.600;2023-09-12T12:36:10;26.56;36.92
76577;DHT22;65441;44.748;37.600;2023-09-12T12:38:48;26.12;37.67
76577;DHT22;65441;44.748;37.600;2023-09-12T12:41:24;26.05;38.57
76577;DHT22;65441;44.748;37.600;2023-09-12T12:43:53;25.95;38.24
76577;DHT22;65441;44.748;37.600;2023-09-12T12:46:25;25.96;38.74
76577;DHT22;65441;44.748;37.600;2023-09-12T12:48:55;25.65;38.91
76577;DHT22;65441;44.748;37.600;2023-09-12T12:51:24;25.53;38.97
76577;DHT22;65441;44.748;37.600;2023-09-12T12:54:04;25.47;39.55
76577;DHT22;65441;44.748;37.600;2023-09-12T12:56:35;25.47;39.41
76577;DHT22;65441;44.748;37.600;2023-09-12T12:59:05;25.47;39.08
76577;DHT22;65441;44.748;37.600;2023-09-12T13:01:38;25.67;39.88
76577;DHT22;65441;44.748;37.600;2023-09-12T13:04:17;25.87;39.65
76577;DHT22;65441;44.748;37.600;2023-09-12T13:06:46;26.08;38.80
76577;DHT22;65441;44.748;37.600;2023-09-12T13:09:17;26.35;39.21
76577;DHT22;65441;44.748;37.600;2023-09-12T13:11:47;26.40;38.46
76577;DHT22;65441;44.748;37.600;2023-09-12T13:14:15;26.07;36.66
76577;DHT22;65441;44.748;37.600;2023-09-12T13:16:46;25.82;37.51
76577;DHT22;65441;44.748;37.600;2023-09-12T13:19:15;25.68;37.08
76577;DHT22;65441;44.748;37.600;2023-09-12T13:21:44;25.53;37.32
76577;DHT22;65441;44.748;37.600;2023-09-12T13:24:13;25.39;37.46
76577;DHT22;65441;44.748;37.600;2023-09-12T13:26:42;25.33;37.62
76577;DHT22;65441;44.748;37.600;2023-09-12T13:29:12;25.30;37.95
76577;DHT22;65441;44.748;37.600;2023-09-12T13:32:06;25.14;38.32
76577;DHT22;65441;44.748;37.600;2023-09-12T13:34:36;24.99;39.27
76577;DHT22;65441;44.748;37.600;2023-09-12T13:37:08;24.98;39.73
76577;DHT22;65441;44.748;37.600;2023-09-12T13:39:36;24.94;39.70
76577;DHT22;65441;44.748;37.600;2023-09-12T13:42:35;24.87;39.03
76577;DHT22;65441;44.748;37.600;2023-09-12T13:45:37;24.71;39.27
76577;DHT22;65441;44.748;37.600;2023-09-12T13:48:06;24.74;38.71
76577;DHT22;65441;44.748;37.600;2023-09-12T13:51:24;24.59;38.97
76577;DHT22;65441;44.748;37.600;2023-09-12T13:54:04;24.55;39.62
76577;DHT22;65441;44.748;37.600;2023-09-12T13:56:34;24.48;39.66
76577;DHT22;65441;44.748;37.600;2023-09-12T13:59:03;24.39;38.57
76577;DHT22;65441;44.748;37.600;2023-09-12T14:01:33;24.34;38.28
76577;DHT22;65441;44.748;37.600;2023-09-12T14:04:05;24.36;37.94
76577;DHT22;65441;44.748;37.600;2023-09-12T14:06:44;24.34;38.42
76577;DHT22;65441;44.748;37.600;2023-09-12T14:09:12;24.25;38.22
76577;DHT22;65441;44.748;37.600;2023-09-12T14:11:42;24.18;38.23
76577;DHT22;65441;44.748;37.600;2023-09-12T14:14:10;24.29;38.91
76577;DHT22;65441;44.748;37.600;2023-09-12T14:16:40;24.18;39.26
76577;DHT22;65441;44.748;37.600;2023-09-12T14:19:08;24.16;40.78
76577;DHT22;65441;44.748;37.600;2023-09-12T14:21:36;24.14;40.43
76577;DHT22;65441;44.748;37.600;2023-09-12T14:24:07;24.10;40.26
76577;DHT22;65441;44.748;37.600;2023-09-12T14:26:36;24.09;39.98
76577;DHT22;65441;44.748;37.600;2023-09-12T14:29:04;24.03;40.94
76577;DHT22;65441;44.748;37.600;2023-09-12T14:31:32;23.98;40.80
76577;DHT22;65441;44.748;37.600;2023-09-12T14:34:09;23.87;40.32
76577;DHT22;65441;44.748;37.600;2023-09-12T14:36:47;23.87;40.95
76577;DHT22;65441;44.748;37.600;2023-09-12T14:39:15;23.79;41.50
76577;DHT22;65441;44.748;37.600;2023-09-12T14:41:43;23.69;41.48
76577;DHT22;65441;44.748;37.600;2023-09-12T14:44:16;23.72;42.64
76577;DHT22;65441;44.748;37.600;2023-09-12T14:46:44;23.67;40.48
76577;DHT22;65441;44.748;37.600;2023-09-12T14:49:16;23.56;40.24
76577;DHT22;65441;44.748;37.600;2023-09-12T14:51:45;23.45;40.68
76577;DHT22;65441;44.748;37.600;2023-09-12T14:54:14;23.42;40.37
76577;DHT22;65441;44.748;37.600;2023-09-12T14:56:42;23.42;41.04
76577;DHT22;65441;44.748;37.600;2023-09-12T14:59:10;23.45;40.23
76577;DHT22;65441;44.748;37.600;2023-09-12T15:01:39;23.44;40.41
76577;DHT22;65441;44.748;37.600;2023-09-12T15:04:07;23.38;40.37
76577;DHT22;65441;44.748;37.600;2023-09-12T15:06:38;23.31;39.81
76577;DHT22;65441;44.748;37.600;2023-09-12T15:09:09;23.34;40.36
76577;DHT22;65441;44.748;37.600;2023-09-12T15:11:38;23.24;39.19
76577;DHT22;65441;44.748;37.600;2023-09-12T15:14:06;23.11;39.34
76577;DHT22;65441;44.748;37.600;2023-09-12T15:16:34;23.14;40.33
76577;DHT22;65441;44.748;37.600;2023-09-12T15:19:02;23.08;42.41
76577;DHT22;65441;44.748;37.600;2023-09-12T15:21:30;23.05;40.44
76577;DHT22;65441;44.748;37.600;2023-09-12T15:24:00;23.00;42.17
76577;DHT22;65441;44.748;37.600;2023-09-12T15:26:28;22.91;41.57
76577;DHT22;65441;44.748;37.600;2023-09-12T15:28:56;22.92;42.84
76577;DHT22;65441;44.748;37.600;2023-09-12T15:31:25;22.91;44.87
76577;DHT22;65441;44.748;37.600;2023-09-12T15:33:53;22.81;42.93
76577;DHT22;65441;44.748;37.600;2023-09-12T15:36:23;22.66;42.19
76577;DHT22;65441;44.748;37.600;2023-09-12T15:38:53;22.58;43.91